createdAt,value
2023-05-16T00:02:01.652Z,98877.31
2023-05-16T00:04:37.819Z,98873.19
2023-05-16T00:07:22.764Z,98874.03
2023-05-16T00:09:57.076Z,98877.66
2023-05-16T00:12:30.924Z,98881.75
2023-05-16T00:15:03.709Z,98878.25
2023-05-16T00:17:39.912Z,98879.03
2023-05-16T00:20:15.222Z,98877.75
2023-05-16T00:22:50.373Z,98881.03
2023-05-16T00:25:24.919Z,98876.38
2023-05-16T00:28:02.905Z,98879.44
2023-05-16T00:30:43.607Z,98882.41
2023-05-16T00:33:15.822Z,98886.78
2023-05-16T00:35:46.058Z,98880.84
2023-05-16T00:38:23.155Z,98881.91
2023-05-16T00:40:55.760Z,98882.22
2023-05-16T00:43:31.720Z,98875.28
2023-05-16T00:46:03.200Z,98877.50
2023-05-16T00:48:40.649Z,98870.00
2023-05-16T00:51:12.744Z,98875.00
2023-05-16T00:53:54.189Z,98872.63
2023-05-16T00:56:28.378Z,98873.59
2023-05-16T00:59:02.378Z,98867.47
2023-05-16T01:01:46.376Z,98882.19
2023-05-16T01:04:16.723Z,98883.13
2023-05-16T01:06:50.614Z,98889.91
2023-05-16T01:09:23.835Z,98889.38
2023-05-16T01:12:04.503Z,98888.63
2023-05-16T01:14:54.219Z,98887.78
2023-05-16T01:17:33.458Z,98886.00
2023-05-16T01:20:17.878Z,98892.13
2023-05-16T01:23:04.398Z,98894.25
2023-05-16T01:25:49.473Z,98891.06
2023-05-16T01:28:26.067Z,98889.16
2023-05-16T01:30:58.451Z,98895.09
2023-05-16T01:33:31.451Z,98891.50
2023-05-16T01:36:13.961Z,98899.88
2023-05-16T01:39:03.266Z,98895.53
2023-05-16T01:41:44.134Z,98889.47
2023-05-16T01:44:28.269Z,98890.53
2023-05-16T01:47:05.011Z,98885.91
2023-05-16T01:49:47.113Z,98895.22
2023-05-16T01:52:31.763Z,98892.56
2023-05-16T01:55:06.211Z,98896.91
2023-05-16T01:57:40.705Z,98900.09
2023-05-16T02:00:17.506Z,98894.25
2023-05-16T02:02:50.389Z,98892.63
2023-05-16T02:05:24.703Z,98900.69
2023-05-16T02:07:58.288Z,98892.84
2023-05-16T02:10:30.598Z,98898.78
2023-05-16T02:13:02.626Z,98892.09
2023-05-16T02:15:38.278Z,98886.03
2023-05-16T02:18:10.519Z,98886.19
2023-05-16T02:20:41.022Z,98885.84
2023-05-16T02:23:14.260Z,98893.19
2023-05-16T02:25:51.533Z,98886.59
2023-05-16T02:28:28.829Z,98887.03
2023-05-16T02:31:07.709Z,98882.88
2023-05-16T02:33:42.124Z,98888.56
2023-05-16T02:36:14.927Z,98891.97
2023-05-16T02:38:54.670Z,98900.97
2023-05-16T02:41:25.947Z,98900.63
2023-05-16T02:44:01.038Z,98894.06
2023-05-16T02:46:39.074Z,98893.56
2023-05-16T02:49:14.087Z,98892.19
2023-05-16T02:51:55.178Z,98885.09
2023-05-16T02:54:36.722Z,98899.44
2023-05-16T02:57:16.180Z,98889.13
2023-05-16T02:59:47.340Z,98889.56
2023-05-16T03:02:28.641Z,98897.41
2023-05-16T03:05:01.513Z,98897.22
2023-05-16T03:07:34.270Z,98889.69
2023-05-16T03:10:07.778Z,98891.91
2023-05-16T03:12:38.836Z,98897.22
2023-05-16T03:15:13.414Z,98910.53
2023-05-16T03:17:48.835Z,98912.97
2023-05-16T03:20:24.696Z,98913.50
2023-05-16T03:22:57.229Z,98910.38
2023-05-16T03:25:36.604Z,98910.84
2023-05-16T03:28:08.759Z,98911.28
2023-05-16T03:30:41.509Z,98922.31
2023-05-16T03:33:17.416Z,98924.50
2023-05-16T03:35:58.582Z,98922.25
2023-05-16T03:38:31.518Z,98929.88
2023-05-16T03:41:04.434Z,98925.09
2023-05-16T03:43:39.159Z,98919.56
2023-05-16T03:46:13.176Z,98924.88
2023-05-16T03:48:49.011Z,98918.22
2023-05-16T03:51:20.872Z,98922.94
2023-05-16T03:53:50.713Z,98928.81
2023-05-16T03:56:35.747Z,98926.75
2023-05-16T03:59:11.270Z,98933.16
2023-05-16T04:01:50.509Z,98934.28
2023-05-16T04:04:31.931Z,98933.75
2023-05-16T04:07:01.179Z,98930.06
2023-05-16T04:09:38.656Z,98945.91
2023-05-16T04:12:14.089Z,98945.78
2023-05-16T04:15:00.185Z,98949.06
2023-05-16T04:17:42.588Z,98951.97
2023-05-16T04:20:19.797Z,98963.09
2023-05-16T04:22:52.800Z,98970.75
2023-05-16T04:25:24.106Z,98980.53
2023-05-16T04:27:56.175Z,98991.13
2023-05-16T04:30:25.872Z,98989.44
2023-05-16T04:32:55.979Z,98986.81
2023-05-16T04:35:34.369Z,98992.84
2023-05-16T04:38:16.587Z,99004.53
2023-05-16T04:40:48.130Z,99003.25
2023-05-16T04:43:19.097Z,99020.50
2023-05-16T04:45:55.568Z,99020.44
2023-05-16T04:48:31.139Z,99031.66
2023-05-16T04:51:06.768Z,99035.66
2023-05-16T04:53:38.645Z,99039.69
2023-05-16T04:56:13.204Z,99040.41
2023-05-16T04:58:43.328Z,99047.53
2023-05-16T05:01:15.183Z,99054.00
2023-05-16T05:03:48.432Z,99057.38
2023-05-16T05:06:24.486Z,99060.88
2023-05-16T05:08:54.649Z,99060.75
2023-05-16T05:11:24.968Z,99068.06
2023-05-16T05:13:59.142Z,99077.97
2023-05-16T05:16:33.894Z,99077.88
2023-05-16T05:19:07.983Z,99079.59
2023-05-16T05:21:43.220Z,99079.88
2023-05-16T05:24:15.524Z,99086.34
2023-05-16T05:26:50.044Z,99091.91
2023-05-16T05:29:27.289Z,99092.28
2023-05-16T05:32:00.132Z,99091.34
2023-05-16T05:34:32.967Z,99093.69
2023-05-16T05:39:59.846Z,99105.84
2023-05-16T05:42:31.360Z,99106.38
2023-05-16T05:45:04.848Z,99103.53
2023-05-16T05:47:36.910Z,99113.09
2023-05-16T05:50:08.258Z,99110.56
2023-05-16T05:52:41.313Z,99110.38
2023-05-16T05:55:14.283Z,99112.31
2023-05-16T05:57:48.428Z,99117.63
2023-05-16T06:00:24.737Z,99120.25
2023-05-16T06:02:55.892Z,99119.47
2023-05-16T06:05:32.883Z,99121.28
2023-05-16T06:08:06.905Z,99122.72
2023-05-16T06:10:40.180Z,99128.03
2023-05-16T06:13:25.729Z,99140.38
2023-05-16T06:16:00.638Z,99139.31
2023-05-16T06:18:31.739Z,99141.53
2023-05-16T06:21:13.937Z,99141.47
2023-05-16T06:23:49.196Z,99129.91
2023-05-16T06:26:19.046Z,99140.59
2023-05-16T06:28:54.636Z,99148.38
2023-05-16T06:31:29.319Z,99154.81
2023-05-16T06:34:04.984Z,99152.81
2023-05-16T06:36:36.539Z,99153.25
2023-05-16T06:39:13.085Z,99154.38
2023-05-16T06:41:48.702Z,99171.06
2023-05-16T06:44:21.776Z,99169.81
2023-05-16T06:47:12.890Z,99174.75
2023-05-16T06:49:46.018Z,99178.44
2023-05-16T06:52:18.087Z,99178.53
2023-05-16T06:54:57.987Z,99182.50
2023-05-16T06:57:30.980Z,99191.25
2023-05-16T07:00:01.961Z,99191.81
2023-05-16T07:02:39.321Z,99188.16
2023-05-16T07:05:12.060Z,99189.28
2023-05-16T07:07:47.264Z,99192.13
2023-05-16T07:10:37.416Z,99192.38
2023-05-16T07:13:13.654Z,99192.41
2023-05-16T07:15:48.600Z,99190.97
2023-05-16T07:18:20.652Z,99189.84
2023-05-16T07:20:54.841Z,99189.38
2023-05-16T07:23:27.520Z,99195.16
2023-05-16T07:26:18.868Z,99201.22
2023-05-16T07:28:49.396Z,99201.03
2023-05-16T07:31:21.453Z,99204.53
2023-05-16T07:33:54.667Z,99209.22
2023-05-16T07:36:27.544Z,99213.75
2023-05-16T07:39:01.528Z,99215.19
2023-05-16T07:41:35.559Z,99213.38
2023-05-16T07:44:11.486Z,99216.94
2023-05-16T07:46:45.491Z,99216.69
2023-05-16T07:49:23.252Z,99216.69
2023-05-16T07:52:01.007Z,99212.13
2023-05-16T07:54:34.566Z,99219.31
2023-05-16T07:57:15.062Z,99211.38
2023-05-16T07:59:48.130Z,99219.69
2023-05-16T08:02:20.647Z,99222.97
2023-05-16T08:04:51.525Z,99216.81
2023-05-16T08:07:25.321Z,99211.69
2023-05-16T08:09:56.019Z,99211.66
2023-05-16T08:12:36.565Z,99206.72
2023-05-16T08:15:12.246Z,99201.41
2023-05-16T08:17:46.097Z,99204.03
2023-05-16T08:20:18.872Z,99199.13
2023-05-16T08:22:56.997Z,99200.97
2023-05-16T08:25:28.522Z,99200.41
2023-05-16T08:28:05.194Z,99203.59
2023-05-16T08:30:43.112Z,99204.25
2023-05-16T08:33:16.695Z,99202.28
2023-05-16T08:35:53.464Z,99212.28
2023-05-16T08:38:29.069Z,99215.03
2023-05-16T08:41:00.816Z,99215.31
2023-05-16T08:43:40.513Z,99219.75
2023-05-16T08:46:14.820Z,99210.13
2023-05-16T08:48:52.285Z,99215.16
2023-05-16T08:51:28.631Z,99210.78
2023-05-16T08:54:08.729Z,99207.06
2023-05-16T08:56:44.813Z,99217.91
2023-05-16T08:59:25.364Z,99215.53
2023-05-16T09:01:55.414Z,99215.91
2023-05-16T09:04:27.010Z,99215.63
2023-05-16T09:06:59.579Z,99227.47
2023-05-16T09:09:30.675Z,99219.19
2023-05-16T09:12:02.306Z,99222.44
2023-05-16T09:14:37.211Z,99219.06
2023-05-16T09:17:31.991Z,99219.13
2023-05-16T09:20:12.730Z,99233.38
2023-05-16T09:22:44.225Z,99228.34
2023-05-16T09:25:29.410Z,99231.72
2023-05-16T09:28:03.325Z,99239.00
2023-05-16T09:30:37.687Z,99225.06
2023-05-16T09:33:08.860Z,99232.88
2023-05-16T09:35:45.413Z,99219.66
2023-05-16T09:38:18.904Z,99229.66
2023-05-16T09:40:52.760Z,99227.69
2023-05-16T09:43:28.263Z,99232.78
2023-05-16T09:46:02.669Z,99226.97
2023-05-16T09:48:31.977Z,99233.00
2023-05-16T09:51:04.895Z,99222.66
2023-05-16T09:53:36.761Z,99218.81
2023-05-16T09:56:09.003Z,99215.38
2023-05-16T09:58:42.106Z,99216.91
2023-05-16T10:01:14.684Z,99220.44
2023-05-16T10:03:45.461Z,99231.81
2023-05-16T10:06:17.981Z,99222.22
2023-05-16T10:08:50.865Z,99221.38
2023-05-16T10:11:22.286Z,99226.34
2023-05-16T10:13:54.296Z,99222.66
2023-05-16T10:16:25.491Z,99225.91
2023-05-16T10:18:58.189Z,99208.09
2023-05-16T10:21:29.959Z,99224.34
2023-05-16T10:24:06.459Z,99224.19
2023-05-16T10:26:36.679Z,99220.59
2023-05-16T10:29:06.306Z,99209.97
2023-05-16T10:31:37.572Z,99211.50
2023-05-16T10:34:07.949Z,99215.31
2023-05-16T10:36:38.083Z,99207.75
2023-05-16T10:39:06.911Z,99220.00
2023-05-16T10:41:36.636Z,99209.31
2023-05-16T10:44:06.006Z,99211.16
2023-05-16T10:46:37.584Z,99199.50
2023-05-16T10:49:21.835Z,99212.84
2023-05-16T10:52:04.645Z,99202.72
2023-05-16T10:54:44.134Z,99218.38
2023-05-16T10:57:15.815Z,99221.03
2023-05-16T10:59:46.771Z,99215.84
2023-05-16T11:02:43.469Z,99210.69
2023-05-16T11:05:15.783Z,99217.28
2023-05-16T11:07:44.480Z,99216.16
2023-05-16T11:10:17.680Z,99209.25
2023-05-16T11:12:49.719Z,99206.06
2023-05-16T11:15:23.687Z,99224.94
2023-05-16T11:18:04.935Z,99224.09
2023-05-16T11:20:34.638Z,99223.63
2023-05-16T11:23:23.370Z,99222.38
2023-05-16T11:25:54.966Z,99217.81
2023-05-16T11:28:27.650Z,99206.72
2023-05-16T11:31:00.404Z,99208.50
2023-05-16T11:33:36.756Z,99216.16
2023-05-16T11:36:15.998Z,99211.31
2023-05-16T11:38:45.132Z,99215.69
2023-05-16T11:41:16.807Z,99212.59
2023-05-16T11:43:46.922Z,99227.59
2023-05-16T11:46:16.730Z,99221.84
2023-05-16T11:48:47.875Z,99222.78
2023-05-16T11:51:21.510Z,99223.88
2023-05-16T11:53:51.161Z,99224.03
2023-05-16T11:56:20.451Z,99238.88
2023-05-16T11:58:49.315Z,99234.09
2023-05-16T12:01:23.301Z,99234.91
2023-05-16T12:04:00.081Z,99227.13
2023-05-16T12:06:31.389Z,99219.16
2023-05-16T12:08:59.717Z,99223.84
2023-05-16T12:11:28.556Z,99234.44
2023-05-16T12:13:57.471Z,99225.81
2023-05-16T12:16:25.873Z,99229.72
2023-05-16T12:18:54.734Z,99228.59
2023-05-16T12:21:27.063Z,99232.91
2023-05-16T12:23:57.276Z,99219.47
2023-05-16T12:26:28.168Z,99223.59
2023-05-16T12:29:00.798Z,99219.13
2023-05-16T12:31:32.627Z,99218.34
2023-05-16T12:34:01.673Z,99228.31
2023-05-16T12:36:36.192Z,99223.19
2023-05-16T12:39:05.483Z,99221.34
2023-05-16T12:41:34.949Z,99216.59
2023-05-16T12:44:13.964Z,99219.06
2023-05-16T12:46:46.633Z,99221.53
2023-05-16T12:49:16.605Z,99225.19
2023-05-16T12:51:52.740Z,99217.00
2023-05-16T12:54:24.180Z,99240.03
2023-05-16T12:56:52.363Z,99242.22
2023-05-16T12:59:20.910Z,99226.56
2023-05-16T13:01:50.317Z,99240.66
2023-05-16T13:04:20.285Z,99230.75
2023-05-16T13:06:59.138Z,99248.28
2023-05-16T13:09:32.794Z,99242.94
2023-05-16T13:12:01.876Z,99238.75
2023-05-16T13:14:30.528Z,99244.06
2023-05-16T13:16:59.553Z,99237.47
2023-05-16T13:19:28.002Z,99240.16
2023-05-16T13:21:56.467Z,99241.34
2023-05-16T13:24:25.417Z,99248.00
2023-05-16T13:26:55.452Z,99250.72
2023-05-16T13:29:24.042Z,99246.38
2023-05-16T13:31:52.481Z,99243.22
2023-05-16T13:34:23.440Z,99247.91
2023-05-16T13:36:54.368Z,99259.97
2023-05-16T13:39:23.999Z,99250.38
2023-05-16T13:41:53.113Z,99253.25
2023-05-16T13:44:23.179Z,99253.63
2023-05-16T13:46:51.344Z,99246.88
2023-05-16T13:49:19.920Z,99243.88
2023-05-16T13:51:48.470Z,99256.06
2023-05-16T13:54:18.767Z,99254.16
2023-05-16T13:56:47.283Z,99255.19
2023-05-16T13:59:23.705Z,99254.84
2023-05-16T14:02:03.472Z,99265.66
2023-05-16T14:04:31.975Z,99268.69
2023-05-16T14:07:00.286Z,99260.25
2023-05-16T14:09:31.647Z,99263.84
2023-05-16T14:12:00.042Z,99267.31
2023-05-16T14:14:28.213Z,99257.50
2023-05-16T14:16:56.718Z,99254.53
2023-05-16T14:19:28.485Z,99249.50
2023-05-16T14:21:57.273Z,99258.78
2023-05-16T14:24:25.676Z,99247.56
2023-05-16T14:26:58.556Z,99249.56
2023-05-16T14:29:26.973Z,99250.75
2023-05-16T14:31:55.850Z,99263.69
2023-05-16T14:34:24.283Z,99262.84
2023-05-16T14:36:54.603Z,99264.69
2023-05-16T14:39:22.804Z,99260.19
2023-05-16T14:41:52.191Z,99265.09
2023-05-16T14:44:21.854Z,99249.66
2023-05-16T14:46:50.274Z,99259.41
2023-05-16T14:49:18.786Z,99266.13
2023-05-16T14:51:49.492Z,99253.75
2023-05-16T14:54:19.597Z,99259.84
2023-05-16T14:56:48.057Z,99261.19
2023-05-16T14:59:16.819Z,99266.75
2023-05-16T15:01:45.379Z,99275.94
2023-05-16T15:04:14.094Z,99281.75
2023-05-16T15:06:42.502Z,99286.63
2023-05-16T15:09:13.732Z,99281.28
2023-05-16T15:11:43.796Z,99273.00
2023-05-16T15:14:12.282Z,99278.84
2023-05-16T15:16:40.729Z,99269.03
2023-05-16T15:19:09.404Z,99272.25
2023-05-16T15:21:37.680Z,99268.75
2023-05-16T15:24:06.978Z,99271.47
2023-05-16T15:26:35.803Z,99265.44
2023-05-16T15:29:05.914Z,99276.38
2023-05-16T15:31:35.480Z,99274.97
2023-05-16T15:34:06.596Z,99276.25
2023-05-16T15:36:37.837Z,99282.03
2023-05-16T15:39:06.392Z,99277.06
2023-05-16T15:41:56.911Z,99275.91
2023-05-16T15:44:25.474Z,99278.34
2023-05-16T15:46:55.037Z,99282.03
2023-05-16T15:49:23.466Z,99281.25
2023-05-16T15:51:52.235Z,99280.72
2023-05-16T15:54:21.004Z,99282.53
2023-05-16T15:56:51.093Z,99268.66
2023-05-16T15:59:19.849Z,99276.06
2023-05-16T16:01:50.193Z,99268.22
2023-05-16T16:04:23.400Z,99274.78
2023-05-16T16:06:52.310Z,99274.69
2023-05-16T16:09:20.459Z,99271.44
2023-05-16T16:11:49.883Z,99272.59
2023-05-16T16:14:19.389Z,99270.91
2023-05-16T16:16:49.531Z,99268.63
2023-05-16T16:19:18.194Z,99265.47
2023-05-16T16:21:47.323Z,99274.00
2023-05-16T16:24:16.304Z,99262.97
2023-05-16T16:26:45.944Z,99270.22
2023-05-16T16:29:15.837Z,99273.28
2023-05-16T16:31:44.660Z,99281.63
2023-05-16T16:34:16.779Z,99276.97
2023-05-16T16:36:45.773Z,99270.22
2023-05-16T16:39:14.120Z,99270.75
2023-05-16T16:41:42.645Z,99270.72
2023-05-16T16:44:11.197Z,99263.94
2023-05-16T16:46:40.320Z,99268.03
2023-05-16T16:49:08.695Z,99267.72
2023-05-16T16:51:38.467Z,99265.19
2023-05-16T16:54:06.930Z,99264.88
2023-05-16T16:56:36.315Z,99271.03
2023-05-16T16:59:04.899Z,99258.97
2023-05-16T17:01:35.070Z,99265.13
2023-05-16T17:04:03.478Z,99264.63
2023-05-16T17:06:32.329Z,99258.56
2023-05-16T17:09:07.442Z,99257.34
2023-05-16T17:11:37.369Z,99262.66
2023-05-16T17:14:06.511Z,99267.41
2023-05-16T17:16:35.353Z,99268.22
2023-05-16T17:19:07.529Z,99262.75
2023-05-16T17:21:37.190Z,99269.16
2023-05-16T17:24:08.553Z,99271.38
2023-05-16T17:26:39.410Z,99281.38
2023-05-16T17:29:07.907Z,99269.97
2023-05-16T17:31:36.908Z,99276.06
2023-05-16T17:34:06.363Z,99285.00
2023-05-16T17:36:35.040Z,99286.75
2023-05-16T17:39:08.025Z,99287.66
2023-05-16T17:41:39.266Z,99288.03
2023-05-16T17:44:08.292Z,99285.19
2023-05-16T17:46:38.639Z,99286.47
2023-05-16T17:49:07.670Z,99287.31
2023-05-16T17:51:48.046Z,99285.56
2023-05-16T17:54:18.683Z,99282.19
2023-05-16T17:56:49.619Z,99289.69
2023-05-16T17:59:18.477Z,99295.66
2023-05-16T18:01:46.934Z,99300.25
2023-05-16T18:04:15.567Z,99312.28
2023-05-16T18:06:44.480Z,99308.47
2023-05-16T18:09:15.242Z,99311.03
2023-05-16T18:11:43.737Z,99317.53
2023-05-16T18:14:15.683Z,99311.50
2023-05-16T18:16:45.482Z,99308.03
2023-05-16T18:19:13.956Z,99316.16
2023-05-16T18:21:44.522Z,99317.25
2023-05-16T18:24:13.417Z,99325.16
2023-05-16T18:26:42.155Z,99325.25
2023-05-16T18:29:11.585Z,99332.84
2023-05-16T18:31:42.639Z,99327.72
2023-05-16T18:34:12.881Z,99333.88
2023-05-16T18:36:41.351Z,99338.78
2023-05-16T18:39:14.109Z,99335.03
2023-05-16T18:41:46.755Z,99335.50
2023-05-16T18:44:23.004Z,99332.47
2023-05-16T18:46:54.939Z,99342.53
2023-05-16T18:49:23.388Z,99351.59
2023-05-16T18:51:54.344Z,99343.56
2023-05-16T18:54:24.423Z,99344.41
2023-05-16T18:56:53.600Z,99351.34
2023-05-16T18:59:23.578Z,99350.00
2023-05-16T19:01:53.416Z,99359.91
2023-05-16T19:04:22.130Z,99367.94
2023-05-16T19:06:50.896Z,99363.59
2023-05-16T19:09:19.697Z,99364.44
2023-05-16T19:11:48.489Z,99373.09
2023-05-16T19:14:17.127Z,99376.38
2023-05-16T19:16:45.852Z,99383.28
2023-05-16T19:19:15.919Z,99393.31
2023-05-16T19:21:44.403Z,99394.56
2023-05-16T19:24:14.071Z,99404.38
2023-05-16T19:26:42.619Z,99404.88
2023-05-16T19:29:12.906Z,99411.50
2023-05-16T19:31:41.304Z,99417.84
2023-05-16T19:34:09.861Z,99426.94
2023-05-16T19:36:39.661Z,99433.94
2023-05-16T19:39:09.055Z,99427.13
2023-05-16T19:41:37.915Z,99428.50
2023-05-16T19:44:07.669Z,99437.28
2023-05-16T19:46:37.145Z,99437.34
2023-05-16T19:49:07.766Z,99434.25
2023-05-16T19:51:41.753Z,99440.59
2023-05-16T19:54:14.153Z,99441.09
2023-05-16T19:56:42.572Z,99445.81
2023-05-16T19:59:11.499Z,99444.50
2023-05-16T20:04:09.807Z,99447.16
2023-05-16T20:06:39.051Z,99461.66
2023-05-16T20:09:07.707Z,99461.88
2023-05-16T20:11:39.321Z,99464.00
2023-05-16T20:14:08.812Z,99462.88
2023-05-16T20:16:37.531Z,99467.44
2023-05-16T20:19:07.108Z,99468.50
2023-05-16T20:21:36.007Z,99470.34
2023-05-16T20:24:06.189Z,99477.78
2023-05-16T20:26:34.477Z,99474.66
2023-05-16T20:29:05.518Z,99477.00
2023-05-16T20:31:34.111Z,99489.69
2023-05-16T20:34:02.927Z,99486.66
2023-05-16T20:36:32.005Z,99481.34
2023-05-16T20:39:00.211Z,99491.06
2023-05-16T20:41:28.789Z,99498.91
2023-05-16T20:43:57.691Z,99498.81
2023-05-16T20:46:27.500Z,99500.88
2023-05-16T20:48:55.931Z,99506.28
2023-05-16T20:51:24.481Z,99504.28
2023-05-16T20:53:53.328Z,99504.56
2023-05-16T20:56:22.573Z,99514.41
2023-05-16T20:58:50.829Z,99509.84
2023-05-16T21:01:19.294Z,99516.19
2023-05-16T21:03:49.531Z,99511.84
2023-05-16T21:06:18.728Z,99518.84
2023-05-16T21:08:47.142Z,99517.16
2023-05-16T21:11:15.562Z,99519.69
2023-05-16T21:13:43.744Z,99524.59
2023-05-16T21:16:12.784Z,99522.13
2023-05-16T21:18:41.152Z,99528.53
2023-05-16T21:21:11.190Z,99527.13
2023-05-16T21:23:39.619Z,99527.78
2023-05-16T21:26:08.723Z,99536.13
2023-05-16T21:28:46.077Z,99541.88
2023-05-16T21:31:22.670Z,99541.41
2023-05-16T21:33:52.664Z,99536.81
2023-05-16T21:36:23.163Z,99537.06
2023-05-16T21:38:51.558Z,99538.19
2023-05-16T21:41:21.844Z,99540.41
2023-05-16T21:43:50.182Z,99538.78
2023-05-16T21:46:18.698Z,99541.25
2023-05-16T21:48:47.571Z,99540.94
2023-05-16T21:51:16.177Z,99549.59
2023-05-16T21:53:46.684Z,99548.13
2023-05-16T21:56:15.139Z,99550.59
2023-05-16T21:58:43.994Z,99550.34
2023-05-16T22:01:13.176Z,99551.19
2023-05-16T22:03:43.567Z,99550.63
2023-05-16T22:06:12.149Z,99545.16
2023-05-16T22:08:40.824Z,99546.69
2023-05-16T22:11:12.560Z,99557.97
2023-05-16T22:13:41.661Z,99566.84
2023-05-16T22:16:11.277Z,99558.31
2023-05-16T22:18:39.909Z,99555.81
2023-05-16T22:21:09.633Z,99560.25
2023-05-16T22:23:38.055Z,99559.13
2023-05-16T22:26:07.302Z,99560.97
2023-05-16T22:28:37.248Z,99557.97
2023-05-16T22:31:05.769Z,99557.88
2023-05-16T22:33:34.374Z,99552.50
2023-05-16T22:36:03.837Z,99564.25
2023-05-16T22:38:32.254Z,99561.94
2023-05-16T22:41:01.774Z,99554.81
2023-05-16T22:43:30.114Z,99559.09
2023-05-16T22:46:02.826Z,99561.94
2023-05-16T22:48:31.806Z,99551.81
2023-05-16T22:51:00.062Z,99559.38
2023-05-16T22:53:28.516Z,99565.72
2023-05-16T22:55:59.519Z,99564.53
2023-05-16T22:58:28.191Z,99567.25
2023-05-16T23:00:58.135Z,99573.13
2023-05-16T23:03:28.202Z,99581.09
2023-05-16T23:05:57.197Z,99574.00
2023-05-16T23:08:25.529Z,99577.22
2023-05-16T23:10:53.768Z,99582.06
2023-05-16T23:13:21.804Z,99579.75
2023-05-16T23:15:49.987Z,99579.28
2023-05-16T23:18:19.601Z,99584.31
2023-05-16T23:20:49.563Z,99584.22
2023-05-16T23:23:17.730Z,99577.22
2023-05-16T23:25:46.512Z,99582.78
2023-05-16T23:28:19.108Z,99578.66
2023-05-16T23:30:47.578Z,99583.09
2023-05-16T23:33:16.968Z,99583.38
2023-05-16T23:35:49.344Z,99586.13
2023-05-16T23:38:19.250Z,99590.38
2023-05-16T23:40:48.689Z,99600.44
2023-05-16T23:43:18.464Z,99597.34
2023-05-16T23:45:46.795Z,99603.72
2023-05-16T23:48:15.683Z,99601.13
2023-05-16T23:50:43.970Z,99604.31
2023-05-16T23:53:14.369Z,99600.50
2023-05-16T23:55:42.878Z,99598.19
2023-05-16T23:58:11.114Z,99597.78
